Time;durP1;ratioP1;P1;durP2;ratioP2;P2;SDS_P1;SDS_P2;PMS_P1;PMS_P2;Temp;Humidity;BMP_temperature;BMP_pressure;BME280_temperature;BME280_humidity;BME280_pressure;Samples;Min_cycle;Max_cycle;Signal;HPM_P1;HPM_P2
2022/01/24 10:16:24;;;;;;;21.77;20.37;;;15.40;90.40;;;;;;6321429;21;1187448;-83
2022/01/24 10:18:09;;;;;;;23.40;21.70;;;17.20;80.20;;;;;;6281223;22;20407;-84
2022/01/24 10:20:38;;;;;;;22.07;20.37;;;17.70;79.70;;;;;;6281424;22;20406;-83
2022/01/24 10:23:09;;;;;;;22.87;21.47;;;18.20;75.70;;;;;;6281322;22;20429;-84
2022/01/24 10:25:47;;;;;;;25.67;23.67;;;18.00;74.90;;;;;;6281716;22;20390;-84
2022/01/24 10:28:23;;;;;;;25.07;23.17;;;17.40;74.50;;;;;;6282076;22;20748;-84
2022/01/24 10:31:01;;;;;;;22.97;21.27;;;17.20;75.70;;;;;;6281209;22;20947;-84
2022/01/24 10:33:28;;;;;;;18.00;17.00;;;17.30;75.30;;;;;;6281826;22;20398;-84
2022/01/24 10:35:55;;;;;;;19.37;18.20;;;17.00;73.90;;;;;;6281506;22;20413;-83
2022/01/24 10:38:33;;;;;;;19.70;18.50;;;15.70;74.50;;;;;;6281395;22;20509;-83
2022/01/24 10:41:12;;;;;;;18.93;17.67;;;14.90;78.00;;;;;;6281863;22;20390;-83
2022/01/24 10:43:41;;;;;;;18.63;17.43;;;15.80;77.80;;;;;;6281253;22;20862;-83
2022/01/24 10:46:09;;;;;;;18.70;17.17;;;16.00;75.60;;;;;;6281378;22;20436;-83
2022/01/24 10:48:39;;;;;;;18.50;17.40;;;16.20;74.70;;;;;;6281149;22;20905;-84
2022/01/24 10:51:13;;;;;;;16.80;15.80;;;15.40;76.90;;;;;;6280776;22;20442;-84
2022/01/24 10:53:42;;;;;;;19.40;18.00;;;15.60;75.70;;;;;;6281471;22;20402;-83
2022/01/24 10:56:26;;;;;;;18.17;17.23;;;14.60;77.20;;;;;;6281331;22;20402;-83
2022/01/24 10:58:58;;;;;;;19.43;17.47;;;13.80;82.60;;;;;;6281084;22;20791;-84
2022/01/24 11:01:27;;;;;;;16.30;15.50;;;14.40;79.90;;;;;;6281016;22;20390;-83
2022/01/24 11:04:02;;;;;;;16.80;15.90;;;14.10;79.60;;;;;;6251959;22;20688;-83
2022/01/24 11:06:30;;;;;;;18.07;17.10;;;14.40;81.20;;;;;;6251302;22;20405;-83
2022/01/24 11:09:22;;;;;;;17.90;16.80;;;15.40;78.00;;;;;;6250044;22;20415;-84
2022/01/24 11:11:51;;;;;;;16.93;15.87;;;15.10;75.80;;;;;;6254966;22;20451;-83
2022/01/24 11:14:20;;;;;;;17.80;16.80;;;15.10;77.50;;;;;;6274168;22;20760;-83
2022/01/24 11:16:48;;;;;;;17.27;16.37;;;15.50;75.80;;;;;;6273738;22;20771;-85
2022/01/24 11:19:21;;;;;;;16.30;15.50;;;15.00;75.80;;;;;;6274019;22;20407;-82
2022/01/24 11:21:48;;;;;;;18.60;17.50;;;14.30;77.60;;;;;;6273818;22;20882;-82
2022/01/24 11:24:20;;;;;;;17.20;16.00;;;13.90;79.40;;;;;;6274142;22;20413;-82
2022/01/24 11:26:47;;;;;;;16.83;15.93;;;13.80;81.30;;;;;;6274239;22;20395;-85
2022/01/24 11:29:17;;;;;;;17.23;16.33;;;14.40;79.70;;;;;;6274558;22;20464;-83
2022/01/24 11:31:50;;;;;;;16.67;15.67;;;15.20;77.60;;;;;;6274284;22;20435;-83
2022/01/24 11:34:30;;;;;;;16.40;15.40;;;15.60;76.40;;;;;;6274057;22;20765;-83
2022/01/24 11:36:58;;;;;;;16.90;16.10;;;16.80;73.60;;;;;;6273316;22;20422;-82
2022/01/24 11:39:25;;;;;;;17.10;16.30;;;16.90;70.40;;;;;;6273432;22;20442;-83
2022/01/24 11:41:52;;;;;;;15.70;14.90;;;17.30;71.00;;;;;;6273819;22;20403;-83
2022/01/24 11:44:21;;;;;;;18.00;17.00;;;18.10;67.70;;;;;;6273826;22;20414;-83
2022/01/24 11:46:55;;;;;;;17.53;16.27;;;17.40;67.80;;;;;;6273499;22;20973;-83
2022/01/24 11:49:27;;;;;;;16.70;15.80;;;17.70;68.20;;;;;;6273773;22;20519;-83
2022/01/24 11:52:03;;;;;;;17.37;16.43;;;18.90;66.20;;;;;;6273712;22;20824;-83
2022/01/24 11:57:35;;;;;;;16.33;15.53;;;19.30;61.70;;;;;;6273071;22;20943;-83
2022/01/24 12:00:20;;;;;;;16.40;15.50;;;19.90;60.70;;;;;;6273839;22;20398;-83
2022/01/24 12:02:50;;;;;;;16.30;15.50;;;20.50;59.90;;;;;;6274007;22;20757;-84
2022/01/24 12:05:19;;;;;;;17.03;16.33;;;19.50;61.00;;;;;;6273929;22;20426;-83
2022/01/24 12:07:47;;;;;;;16.30;15.40;;;20.20;59.80;;;;;;6273687;22;20925;-83
2022/01/24 12:10:45;;;;;;;16.90;16.10;;;20.30;58.50;;;;;;6274112;22;20403;-83
2022/01/24 12:13:18;;;;;;;16.70;15.60;;;20.60;57.50;;;;;;6221186;22;20449;-82
2022/01/24 12:15:54;;;;;;;15.87;14.97;;;20.20;58.20;;;;;;6273822;22;20388;-82
2022/01/24 12:18:43;;;;;;;16.23;15.23;;;20.40;57.90;;;;;;6272978;22;20889;-82
2022/01/24 12:21:11;;;;;;;16.47;15.57;;;19.80;58.10;;;;;;6273549;22;20429;-82
2022/01/24 12:23:40;;;;;;;15.73;14.93;;;19.60;59.20;;;;;;6272771;22;20410;-81
2022/01/24 12:26:08;;;;;;;16.00;15.20;;;19.60;58.70;;;;;;6273164;22;20453;-82
2022/01/24 12:28:47;;;;;;;15.50;14.87;;;19.00;58.80;;;;;;6273307;22;20464;-81
2022/01/24 12:31:22;;;;;;;16.40;15.57;;;20.00;57.90;;;;;;6273691;22;20434;-80
2022/01/24 12:34:08;;;;;;;16.23;15.43;;;19.00;58.70;;;;;;6273026;22;20387;-80
2022/01/24 12:37:04;;;;;;;14.60;13.90;;;18.60;59.70;;;;;;6273287;22;20406;-81
2022/01/24 12:39:36;;;;;;;16.03;15.17;;;18.90;60.00;;;;;;6273625;22;20399;-82
2022/01/24 12:42:10;;;;;;;14.77;13.97;;;18.90;59.50;;;;;;6273145;22;20387;-80
2022/01/24 12:47:26;;;;;;;15.37;14.67;;;16.60;63.70;;;;;;6272980;22;20542;-80
2022/01/24 12:49:56;;;;;;;16.10;15.20;;;16.90;64.70;;;;;;6273201;22;20414;-80
2022/01/24 12:52:24;;;;;;;557.23;138.83;;;16.80;64.80;;;;;;6273088;22;20741;-80
2022/01/24 12:54:53;;;;;;;15.03;14.20;;;16.80;65.80;;;;;;6273120;22;20704;-80
2022/01/24 12:57:26;;;;;;;14.00;13.30;;;16.30;66.60;;;;;;6273146;22;20469;-80
2022/01/24 12:59:55;;;;;;;15.17;14.47;;;16.10;67.40;;;;;;6273206;22;20395;-80
2022/01/24 13:02:27;;;;;;;13.77;12.97;;;16.30;68.50;;;;;;6272875;22;20601;-79
2022/01/24 13:05:03;;;;;;;13.70;13.10;;;15.80;67.60;;;;;;6273025;22;20769;-80
2022/01/24 13:07:31;;;;;;;14.93;13.97;;;15.50;69.10;;;;;;6273409;22;20777;-79
2022/01/24 13:10:10;;;;;;;13.57;12.87;;;14.30;71.10;;;;;;6273264;22;20464;-79
2022/01/24 13:12:38;;;;;;;13.07;12.37;;;13.30;74.80;;;;;;6272422;22;20544;-79
2022/01/24 13:15:09;;;;;;;13.20;12.60;;;12.20;79.30;;;;;;6272843;22;20439;-79
2022/01/24 13:23:09;;;;;;;12.80;12.20;;;10.10;92.70;;;;;;6225328;22;20394;-78
2022/01/24 13:25:38;;;;;;;12.83;12.13;;;9.90;94.80;;;;;;6272694;22;20790;-78
2022/01/24 13:28:07;;;;;;;12.90;12.30;;;9.70;95.50;;;;;;6272723;22;20796;-78
2022/01/24 13:30:35;;;;;;;13.50;12.60;;;9.40;96.20;;;;;;6272336;22;20399;-79
2022/01/24 13:33:03;;;;;;;14.17;12.97;;;9.30;98.00;;;;;;6272143;22;20403;-78
2022/01/24 13:35:33;;;;;;;13.73;12.93;;;9.20;98.80;;;;;;6272610;22;20776;-78
2022/01/24 13:38:02;;;;;;;13.43;12.73;;;9.30;99.80;;;;;;6272811;22;20403;-78
2022/01/24 13:40:40;;;;;;;14.23;13.03;;;9.20;99.90;;;;;;6273043;22;20402;-79
2022/01/24 13:43:09;;;;;;;13.57;12.83;;;9.20;99.90;;;;;;6272365;22;20859;-78
2022/01/24 13:45:37;;;;;;;13.43;12.63;;;9.10;99.90;;;;;;6272537;22;20415;-78
2022/01/24 13:48:06;;;;;;;13.23;12.37;;;9.10;99.90;;;;;;6272456;22;20846;-79
2022/01/24 13:50:34;;;;;;;13.27;12.57;;;9.00;99.90;;;;;;6272735;22;20441;-79
2022/01/24 13:53:01;;;;;;;13.10;12.33;;;9.00;99.90;;;;;;6272956;22;20522;-78
2022/01/24 13:55:28;;;;;;;13.53;12.67;;;8.90;99.90;;;;;;6272642;22;20415;-78
2022/01/24 13:57:55;;;;;;;13.83;13.07;;;9.00;99.90;;;;;;6272429;22;20415;-78
2022/01/24 14:00:26;;;;;;;12.77;12.07;;;8.90;99.90;;;;;;6272026;22;20410;-79
2022/01/24 14:03:07;;;;;;;11.90;11.20;;;8.80;99.90;;;;;;6271705;22;21127;-79
2022/01/24 14:05:36;;;;;;;12.00;11.40;;;8.70;99.90;;;;;;6272140;22;20399;-79
2022/01/24 14:08:14;;;;;;;12.20;11.50;;;8.60;99.90;;;;;;6272599;22;20417;-79
2022/01/24 14:10:41;;;;;;;12.80;12.00;;;8.60;99.90;;;;;;6272494;22;20393;-78
2022/01/24 14:13:10;;;;;;;12.63;11.93;;;8.50;99.90;;;;;;6272007;22;20454;-78
2022/01/24 14:15:52;;;;;;;13.03;12.10;;;8.40;99.90;;;;;;6272347;22;20409;-79
2022/01/24 14:18:28;;;;;;;12.70;12.13;;;8.50;99.90;;;;;;6272824;22;20422;-78
2022/01/24 14:21:08;;;;;;;12.50;11.70;;;8.50;99.90;;;;;;6272474;22;20485;-79
2022/01/24 14:23:37;;;;;;;251.40;102.97;;;8.40;99.90;;;;;;6272214;22;20481;-78
2022/01/24 14:26:14;;;;;;;12.23;11.33;;;8.40;99.90;;;;;;6272377;22;20432;-78
2022/01/24 14:28:41;;;;;;;13.10;12.20;;;8.40;99.90;;;;;;6272446;22;20421;-78
2022/01/24 14:31:12;;;;;;;12.20;11.70;;;8.30;99.90;;;;;;6272238;22;20814;-78
2022/01/24 14:33:39;;;;;;;12.30;11.30;;;8.30;99.90;;;;;;6272445;22;20402;-79
2022/01/24 14:36:12;;;;;;;13.23;12.57;;;8.30;99.90;;;;;;6272094;22;20407;-78
2022/01/24 14:38:41;;;;;;;12.67;12.07;;;8.30;99.90;;;;;;6272071;22;20399;-78
2022/01/24 14:41:09;;;;;;;10.73;10.23;;;8.20;99.90;;;;;;6272394;22;20412;-78
2022/01/24 14:46:24;;;;;;;13.30;12.60;;;8.10;99.90;;;;;;6272223;22;20370;-78
2022/01/24 14:48:54;;;;;;;12.63;11.73;;;8.10;99.90;;;;;;6274027;22;20483;-78
2022/01/24 14:51:25;;;;;;;12.33;11.50;;;8.10;99.90;;;;;;6274049;22;20492;-78
2022/01/24 14:53:52;;;;;;;12.50;11.90;;;8.10;99.90;;;;;;6274267;22;20393;-78
2022/01/24 14:56:19;;;;;;;12.77;12.00;;;8.10;99.90;;;;;;6274220;22;20817;-78
2022/01/24 14:58:46;;;;;;;13.63;12.73;;;8.00;99.90;;;;;;6274439;22;20417;-78
2022/01/24 15:01:14;;;;;;;12.90;12.10;;;8.00;99.90;;;;;;6274258;22;20410;-78
2022/01/24 15:03:42;;;;;;;11.73;11.07;;;8.00;99.90;;;;;;6273906;22;20451;-78
2022/01/24 15:06:10;;;;;;;12.93;12.23;;;8.00;99.90;;;;;;6273597;22;20454;-78
2022/01/24 15:08:40;;;;;;;12.80;12.30;;;7.90;99.90;;;;;;6274099;22;20798;-78
2022/01/24 15:11:07;;;;;;;11.97;11.47;;;7.90;99.90;;;;;;6273767;22;20429;-78
2022/01/24 15:13:40;;;;;;;12.80;12.10;;;7.90;99.90;;;;;;6273742;22;20440;-78
2022/01/24 15:16:18;;;;;;;14.33;13.33;;;7.90;99.90;;;;;;6274129;22;20393;-78
2022/01/24 15:24:32;;;;;;;11.33;10.73;;;7.80;99.90;;;;;;6274183;22;20880;-78
2022/01/24 15:26:59;;;;;;;13.60;12.70;;;7.70;99.90;;;;;;6274186;22;20393;-78
2022/01/24 15:29:28;;;;;;;12.70;12.10;;;7.70;99.90;;;;;;6273773;22;20777;-78
2022/01/24 15:31:55;;;;;;;15.20;12.93;;;7.60;99.90;;;;;;6273766;22;20493;-79
2022/01/24 15:34:25;;;;;;;13.13;12.33;;;7.50;99.90;;;;;;6274838;22;20733;-78
2022/01/24 15:36:53;;;;;;;12.30;11.70;;;7.50;99.90;;;;;;6271766;22;20410;-77
2022/01/24 15:39:21;;;;;;;12.30;11.70;;;7.40;99.90;;;;;;6273842;22;20519;-77
2022/01/24 15:41:52;;;;;;;13.63;12.93;;;7.40;99.90;;;;;;6273823;22;20411;-77
2022/01/24 15:47:19;;;;;;;12.83;12.10;;;7.30;99.90;;;;;;6257168;22;20409;-80
2022/01/24 15:49:46;;;;;;;14.33;13.33;;;7.20;99.90;;;;;;6273798;22;20874;-78
2022/01/24 15:52:14;;;;;;;13.00;12.30;;;7.10;99.90;;;;;;6273819;22;20441;-77
2022/01/24 15:54:45;;;;;;;12.77;12.17;;;7.00;99.90;;;;;;6273573;22;20403;-77
2022/01/24 15:59:56;;;;;;;12.33;11.60;;;6.90;99.90;;;;;;6273639;22;20462;-77
2022/01/24 16:02:22;;;;;;;12.50;11.80;;;6.80;99.90;;;;;;6273472;22;20478;-80
2022/01/24 16:04:49;;;;;;;13.00;12.33;;;6.80;99.90;;;;;;6273326;22;20901;-77
2022/01/24 16:07:16;;;;;;;14.27;13.40;;;6.80;99.90;;;;;;6273589;22;20907;-78
2022/01/24 16:09:44;;;;;;;13.47;12.67;;;6.70;99.90;;;;;;6273680;22;20460;-78
2022/01/24 16:12:11;;;;;;;13.37;12.57;;;6.60;99.90;;;;;;6272966;22;20540;-78
2022/01/24 16:14:38;;;;;;;12.83;12.03;;;6.50;99.90;;;;;;6273316;22;20404;-78
2022/01/24 16:17:05;;;;;;;11.43;10.83;;;6.40;99.90;;;;;;6273258;22;20792;-78
2022/01/24 16:19:34;;;;;;;49.47;15.90;;;6.30;99.90;;;;;;6273792;22;20770;-78
2022/01/24 16:22:14;;;;;;;12.90;12.37;;;6.30;99.90;;;;;;6273503;22;20991;-78
2022/01/24 16:27:26;;;;;;;13.90;13.03;;;6.00;99.90;;;;;;6273435;22;20377;-78
2022/01/24 16:29:52;;;;;;;13.10;12.30;;;5.70;99.90;;;;;;6273052;22;20477;-78
2022/01/24 16:32:19;;;;;;;80.90;51.97;;;5.60;99.90;;;;;;6272985;22;20446;-78
2022/01/24 16:34:46;;;;;;;15.30;14.00;;;5.40;99.90;;;;;;6273831;22;20413;-78
2022/01/24 16:37:14;;;;;;;17.00;12.50;;;5.30;99.90;;;;;;6273515;22;20780;-78
2022/01/24 16:39:41;;;;;;;14.23;13.13;;;5.10;99.90;;;;;;6273540;22;20439;-77
2022/01/24 16:42:13;;;;;;;13.77;12.70;;;5.30;99.90;;;;;;6273519;22;21065;-78
2022/01/24 16:44:56;;;;;;;15.97;14.87;;;5.20;99.90;;;;;;6273109;22;20388;-78
2022/01/24 16:47:24;;;;;;;15.67;14.67;;;5.10;99.90;;;;;;6272851;22;20399;-78
2022/01/24 16:49:51;;;;;;;15.77;14.30;;;4.80;99.90;;;;;;6273137;22;20403;-78
2022/01/24 16:52:18;;;;;;;16.33;15.00;;;4.70;99.90;;;;;;6273235;22;20463;-78
2022/01/24 16:54:48;;;;;;;12.63;12.00;;;4.60;99.90;;;;;;6273524;22;20406;-78
2022/01/24 16:57:16;;;;;;;13.73;12.80;;;4.60;99.90;;;;;;6273383;22;20414;-78
2022/01/24 16:59:45;;;;;;;14.17;13.20;;;4.50;99.90;;;;;;6273228;22;20441;-78
2022/01/24 17:02:12;;;;;;;14.50;13.50;;;4.40;99.90;;;;;;6272740;22;20934;-78
2022/01/24 17:04:39;;;;;;;14.63;13.43;;;4.30;99.90;;;;;;6272978;22;20663;-78
2022/01/24 17:07:06;;;;;;;15.90;14.57;;;4.20;99.90;;;;;;6272929;22;20540;-78
2022/01/24 17:09:33;;;;;;;16.17;14.97;;;4.10;99.90;;;;;;6272902;22;20406;-78
2022/01/24 17:12:01;;;;;;;15.70;14.30;;;3.90;99.90;;;;;;6272981;22;20458;-78
2022/01/24 17:14:31;;;;;;;16.40;15.30;;;3.80;99.90;;;;;;6273513;22;20419;-77
2022/01/24 17:17:00;;;;;;;16.40;15.10;;;3.90;99.90;;;;;;6272757;22;20391;-78
2022/01/24 17:19:27;;;;;;;19.73;17.83;;;4.00;99.90;;;;;;6273061;22;20406;-78
2022/01/24 17:21:54;;;;;;;16.97;15.30;;;4.10;99.90;;;;;;6272953;22;20741;-78
2022/01/24 17:24:20;;;;;;;16.40;15.20;;;4.10;99.90;;;;;;6272567;22;20938;-78
2022/01/24 17:26:47;;;;;;;16.07;14.87;;;4.10;99.90;;;;;;6272674;22;20878;-78
2022/01/24 17:29:14;;;;;;;17.57;15.30;;;4.00;99.90;;;;;;6273277;22;20417;-78
2022/01/24 17:31:42;;;;;;;17.33;16.03;;;4.00;99.90;;;;;;6272610;22;20808;-78
2022/01/24 17:34:10;;;;;;;16.53;15.23;;;4.00;99.90;;;;;;6272535;22;20480;-78
2022/01/24 17:36:37;;;;;;;18.90;17.17;;;3.90;99.90;;;;;;6272687;22;20807;-78
2022/01/24 17:39:05;;;;;;;17.80;16.10;;;3.90;99.90;;;;;;6272331;22;20413;-77
2022/01/24 17:41:32;;;;;;;18.00;16.23;;;3.90;99.90;;;;;;6272783;22;20461;-79
2022/01/24 17:43:59;;;;;;;17.53;15.90;;;3.90;99.90;;;;;;6272953;22;20466;-78
2022/01/24 17:46:26;;;;;;;18.90;17.30;;;3.90;99.90;;;;;;6272154;22;20406;-78
2022/01/24 17:48:52;;;;;;;19.57;17.80;;;3.90;99.90;;;;;;6273022;22;20754;-78
2022/01/24 17:51:20;;;;;;;18.60;17.20;;;3.90;99.90;;;;;;6272615;22;20460;-78
2022/01/24 17:53:47;;;;;;;18.93;17.13;;;3.80;99.90;;;;;;6272794;22;20441;-78
2022/01/24 17:56:14;;;;;;;21.40;19.40;;;3.80;99.90;;;;;;6272942;22;20451;-78
2022/01/24 17:58:42;;;;;;;19.27;17.53;;;3.80;99.90;;;;;;6272604;22;20459;-78
